地図

経路データ

SID SEASON NUMBER BASIN SUBBASIN NAME ISO_TIME NATURE LAT LON WMO_WIND WMO_PRES WMO_AGENCY TRACK_TYPE DIST2LAND LANDFALL IFLAG USA_AGENCY USA_ATCF_ID USA_LAT USA_LON USA_RECORD USA_STATUS USA_WIND USA_PRES USA_SSHS USA_R34_NE USA_R34_SE USA_R34_SW USA_R34_NW USA_R50_NE USA_R50_SE USA_R50_SW USA_R50_NW USA_R64_NE USA_R64_SE USA_R64_SW USA_R64_NW USA_POCI USA_ROCI USA_RMW USA_EYE TOKYO_LAT TOKYO_LON TOKYO_GRADE TOKYO_WIND TOKYO_PRES TOKYO_R50_DIR TOKYO_R50_LONG TOKYO_R50_SHORT TOKYO_R30_DIR TOKYO_R30_LONG TOKYO_R30_SHORT TOKYO_LAND CMA_LAT CMA_LON CMA_CAT CMA_WIND CMA_PRES HKO_LAT HKO_LON HKO_CAT HKO_WIND HKO_PRES NEWDELHI_LAT NEWDELHI_LON NEWDELHI_GRADE NEWDELHI_WIND NEWDELHI_PRES NEWDELHI_CI NEWDELHI_DP NEWDELHI_POCI REUNION_LAT REUNION_LON REUNION_TYPE REUNION_WIND REUNION_PRES REUNION_TNUM REUNION_CI REUNION_RMW REUNION_R34_NE REUNION_R34_SE REUNION_R34_SW REUNION_R34_NW REUNION_R50_NE REUNION_R50_SE REUNION_R50_SW REUNION_R50_NW REUNION_R64_NE REUNION_R64_SE REUNION_R64_SW REUNION_R64_NW BOM_LAT BOM_LON BOM_TYPE BOM_WIND BOM_PRES BOM_TNUM BOM_CI BOM_RMW BOM_R34_NE BOM_R34_SE BOM_R34_SW BOM_R34_NW BOM_R50_NE BOM_R50_SE BOM_R50_SW BOM_R50_NW BOM_R64_NE BOM_R64_SE BOM_R64_SW BOM_R64_NW BOM_ROCI BOM_POCI BOM_EYE BOM_POS_METHOD BOM_PRES_METHOD NADI_LAT NADI_LON NADI_CAT NADI_WIND NADI_PRES WELLINGTON_LAT WELLINGTON_LON WELLINGTON_WIND WELLINGTON_PRES DS824_LAT DS824_LON DS824_STAGE DS824_WIND DS824_PRES TD9636_LAT TD9636_LON TD9636_STAGE TD9636_WIND TD9636_PRES TD9635_LAT TD9635_LON TD9635_WIND TD9635_PRES TD9635_ROCI NEUMANN_LAT NEUMANN_LON NEUMANN_CLASS NEUMANN_WIND NEUMANN_PRES MLC_LAT MLC_LON MLC_CLASS MLC_WIND MLC_PRES USA_GUST BOM_GUST BOM_GUST_PER REUNION_GUST REUNION_GUST_PER USA_SEAHGT USA_SEARAD_NE USA_SEARAD_SE USA_SEARAD_SW USA_SEARAD_NW STORM_SPEED STORM_DIR
1980088S14140 1980 31 SP EA NOT_NAMED 1980-03-27 12:00:00 TS -14.3000 139.800 25 1002 bom main 184 184 O_____O__OO___ jtwc_sh SH271980 -14.3000 139.800 -1 -14.3000 139.800 20 25 1002 1012 -14.3000 139.800 TC -14.3000 139.800 1 13 284
1980088S14140 1980 31 SP EA NOT_NAMED 1980-03-27 15:00:00 TS -14.1519 139.174 main 237 184 P_____P__PP___ SH271980 -14.1505 139.155 -1 -14.1505 139.155 20 25 1001 1011 -14.1505 139.155 TC -14.1562 139.232 1 12 284
1980088S14140 1980 31 SP EA NOT_NAMED 1980-03-27 18:00:00 TS -14.0252 138.633 25 1000 bom main 175 147 O_____V__OP_O_ jtwc_sh SH271980 -14.0000 138.600 -1 -14.0000 138.600 20 25 1000 1011 -14.0000 138.600 TC -14.0091 138.712 1 -14.3000 138.700 TC 30 9 287
1980088S14140 1980 31 SP EA NOT_NAMED 1980-03-27 21:00:00 TS -13.8791 138.244 main 137 118 P_____P__PP_P_ SH271980 -13.8498 138.210 -1 -13.8498 138.210 20 27 1000 1010 -13.8498 138.210 TC -13.8575 138.285 1 -14.0976 138.367 TC 35 7 296
1980088S14140 1980 31 SP EA NOT_NAMED 1980-03-28 00:00:00 TS -13.7316 138.016 30 1000 bom main 119 110 O_____O__OO_O_ jtwc_sh SH271980 -13.7000 138.000 -1 -13.7000 138.000 20 30 1000 2.50000 2.50000 1010 -13.7000 138.000 TC -13.7000 138.000 2 -13.9000 138.100 TC 40 4 314
1980088S14140 1980 31 SP EA NOT_NAMED 1980-03-28 03:00:00 TS -13.5831 137.935 main 110 110 P_____P__PP_P_ SH271980 -13.5574 137.948 -1 -13.5574 137.948 20 30 999 -13.5574 137.948 TC -13.5358 137.885 2 -13.7074 137.948 TC 42 3 350
1980088S14140 1980 31 SP EA NOT_NAMED 1980-03-28 06:00:00 TS -13.4129 137.960 30 998 bom main 127 127 O_____O__OP_O_ jtwc_sh SH271980 -13.4000 138.000 -1 -13.4000 138.000 20 30 998 2.50000 2.50000 -13.4000 138.000 TC -13.3645 137.901 2 -13.5000 137.900 TC 45 4 10
1980088S14140 1980 31 SP EA NOT_NAMED 1980-03-28 09:00:00 TS -13.2132 138.009 main 136 136 P_____P__PP_P_ SH271980 -13.2075 138.043 -1 -13.2000 138.043 20 30 998 -13.2075 138.043 TC -13.1860 137.991 2 -13.2650 137.928 TC 50 4 16
1980088S14140 1980 31 SP EA NOT_NAMED 1980-03-28 12:00:00 TS -13.0000 138.080 30 998 bom main 142 131 O_____O__OO_O_ jtwc_sh SH271980 -13.0000 138.100 -1 -13.0000 138.100 20 30 998 2.50000 2.50000 -13.0000 138.100 TC -13.0000 138.100 2 -13.0000 138.000 TC 55 5 18
1980088S14140 1980 31 SP EA NOT_NAMED 1980-03-28 15:00:00 TS -12.7837 138.153 main 141 134 P_____P__PP_P_ SH271980 -12.8000 138.150 -1 -12.8425 138.180 20 32 996 -12.8000 138.150 TC -12.7908 138.204 2 -12.6850 138.080 TC 57 4 16
1980088S14140 1980 31 SP EA NOT_NAMED 1980-03-28 18:00:00 TS -12.5755 138.201 35 995 bom main 134 130 O_____O__OP_O_ jtwc_sh SH271980 -12.6000 138.200 -1 -12.7000 138.200 30 35 995 3.00000 3.00000 -12.6000 138.200 TC -12.5773 138.305 2 -12.4000 138.100 TC 60 4 8
1980088S14140 1980 31 SP EA NOT_NAMED 1980-03-28 21:00:00 TS -12.3860 138.207 main 130 120 P_____P__PP_P_ SH271980 -12.3850 138.295 -1 -12.5575 138.080 30 37 995 -12.3850 138.295 TC -12.3751 138.354 2 -12.2274 138.010 TC 60 4 347
1980088S14140 1980 31 SP EA NOT_NAMED 1980-03-29 00:00:00 TS -12.2200 138.120 40 995 bom main 120 100 O_____O__OO_O_ jtwc_sh SH271980 -12.2000 138.300 -1 -12.4000 137.900 30 40 995 3.00000 3.00000 1010 -12.2000 138.300 TC -12.2000 138.300 2 -12.1000 137.800 TC 60 4 316
1980088S14140 1980 31 SP EA NOT_NAMED 1980-03-29 03:00:00 TS -12.0793 137.906 main 100 73 P_____P__PP_P_ SH271980 -12.0850 138.118 -1 -12.1924 137.773 30 37 995 -12.0850 138.118 TC -12.0838 138.066 2 -11.9501 137.457 TC 60 6 297
1980088S14140 1980 31 SP EA NOT_NAMED 1980-03-29 06:00:00 TS -11.9586 137.606 35 995 bom main 73 55 O_____O__OP_O_ jtwc_sh SH271980 -12.0000 137.800 -1 -12.0000 137.600 30 35 995 2.50000 3.00000 -12.0000 137.800 TC -11.9930 137.732 2 -11.8000 137.100 TC 60 7 290
1980088S14140 1980 31 SP EA NOT_NAMED 1980-03-29 09:00:00 TS -11.8497 137.264 main 64 55 P_____P__PP_P_ SH271980 -11.9076 137.393 -1 -11.8926 137.308 30 32 996 -11.9076 137.393 TC -11.9057 137.357 2 -11.6349 136.870 TC 57 7 289
1980088S14140 1980 31 SP EA NOT_NAMED 1980-03-29 12:00:00 TS -11.7400 136.940 30 998 bom main 55 46 O_____O__OO_O_ jtwc_sh SH271980 -11.8000 137.000 -1 -11.8000 137.000 20 30 998 2.00000 2.50000 -11.8000 137.000 TC -11.8000 137.000 2 -11.5000 136.700 TC 55 6 294
1980088S14140 1980 31 SP EA NOT_NAMED 1980-03-29 15:00:00 TS -11.6167 136.732 main 49 49 P_____P__PP_P_ SH271980 -11.6649 136.778 -1 -11.6649 136.793 20 30 998 -11.6649 136.778 TC -11.6462 136.775 2 -11.4425 136.535 TC 52 5 305
1980088S14140 1980 31 SP EA NOT_NAMED 1980-03-29 18:00:00 TS -11.4744 136.555 30 998 bom main 57 55 O_____O__OP_O_ jtwc_sh SH271980 -11.5000 136.600 -1 -11.5000 136.600 20 30 998 -11.5000 136.600 TC -11.4720 136.573 2 -11.4000 136.400 TC 50 5 310
1980088S14140 1980 31 SP EA NOT_NAMED 1980-03-29 21:00:00 TS -11.3003 136.352 main 79 79 P_____P__PP_P_ SH271980 -11.3000 136.373 -1 -11.3000 136.373 20 27 999 -11.3000 136.373 TC -11.2868 136.359 2 -11.3150 136.285 TC 47 6 310
1980088S14140 1980 31 SP EA NOT_NAMED 1980-03-30 00:00:00 TS -11.1200 136.120 25 1000 bom main 109 109 O_____O__OO_O_ jtwc_sh SH271980 -11.1000 136.100 -1 -11.1000 136.100 20 25 1000 1010 -11.1000 136.100 TC -11.1000 136.100 2 -11.2000 136.200 TC 45 6 305
1980088S14140 1980 31 SP EA NOT_NAMED 1980-03-30 03:00:00 TS -10.9623 135.852 main 123 123 P_____P__PP_P_ SH271980 -10.9499 135.780 -1 -10.9499 135.780 20 25 1000 -10.9499 135.780 TC -10.9189 135.770 2 -11.0425 136.150 TC 42 6 300
1980088S14140 1980 31 SP EA NOT_NAMED 1980-03-30 06:00:00 TS -10.8144 135.571 25 1000 bom main 145 145 O_____O__OP_O_ jtwc_sh SH271980 -10.8000 135.400 -1 -10.8000 135.400 20 25 1000 -10.8000 135.400 TC -10.7433 135.380 2 -10.9000 136.100 TC 40 6 298
1980088S14140 1980 31 SP EA NOT_NAMED 1980-03-30 09:00:00 TS -10.6823 135.312 main 160 160 P_____P__PP_P_ SH271980 -10.6127 134.965 -1 -10.6127 134.965 20 25 1000 -10.6127 134.965 TC -10.5710 134.950 2 -10.8425 136.015 TC 37 4 300
1980088S14140 1980 31 SP EA NOT_NAMED 1980-03-30 12:00:00 TS -10.6000 135.200 25 1000 bom main 173 156 O_____O__OO_O_ jtwc_sh SH271980 -10.4000 134.500 -1 -10.4000 134.500 20 25 1000 -10.4000 134.500 TC -10.4000 134.500 1 -10.8000 135.900 TC 35 5 92
1980088S14140 1980 31 SP EA NOT_NAMED 1980-03-30 15:00:00 TS -10.6999 135.788 main 156 156 ____________P_ SH271980 -1 20 TC 1 -10.6999 135.788 TC 32 4 90
1980088S14140 1980 31 SP EA NOT_NAMED 1980-03-30 18:00:00 TS -10.6000 135.600 main 167 167 ____________O_ -1 1 -10.6000 135.600 TC 30 5 289
1980088S14140 1980 31 SP EA NOT_NAMED 1980-03-30 21:00:00 TS -10.5350 135.302 main 182 179 ____________P_ -1 1 -10.5350 135.302 TC 27 7 278
1980088S14140 1980 31 SI WA NOT_NAMED 1980-03-31 00:00:00 TS -10.5000 134.900 main 179 159 ____________O_ -1 -10.5000 134.900 TC 25 9 273
1980088S14140 1980 31 SI WA NOT_NAMED 1980-03-31 03:00:00 TS -10.4926 134.400 main 159 146 ____________P_ -1 -10.4926 134.400 TC 22 10 270
1980088S14140 1980 31 SI WA NOT_NAMED 1980-03-31 06:00:00 TS -10.5000 133.900 main 146 120 ____________O_ -1 -10.5000 133.900 TC 20 9 269
1980088S14140 1980 31 SI WA NOT_NAMED 1980-03-31 09:00:00 TS -10.5024 133.512 main 120 105 ____________P_ -1 -10.5024 133.512 TC 17 7 270
1980088S14140 1980 31 SI WA NOT_NAMED 1980-03-31 12:00:00 TS -10.5000 133.200 main 105 ____________O_ -1 -10.5000 133.200 TC 15 6 270

デジタル台風データ・検索

IBTrACS Databaseについて

本データベースは、米国NOAAが公開する1842年以降の世界の熱帯低気圧のベストトラックデータアーカイブInternational Best Track Archive for Climate Stewardship (IBTrACS)を、ウェブで閲覧しやすい形式に変換したものです。

最終更新日:2021-11-26